VECC Airport Information

Runway Information
Runway 01L Length 7871 ft width 150 ft
Elevation 19 ft Threshold 0 ft Heading 6
Runway 19R Length 7871 ft Width 150 ft
Elevation 19 ft Threshold 0 ft Heading 186
Runway 01R Length 11900 ft width 150 ft
Elevation 20 ft Threshold 0 ft Heading 6
Runway 19L Length 11900 ft Width 150 ft
Elevation 19 ft Threshold 1390 ft Heading 186
Airport Frequencies
Type A/G Name KOLKATA RD Frequency 127.3 MHZ
Type ACC Name KOLKATA CO Frequency 119.3 MHZ
Type APP Name KOLKATA AP Frequency 127.9 MHZ
Type APP CONTRO Name KOLKATA CO Frequency 132.45 MHZ
Type ATIS Name ATIS Frequency 126.4 MHZ
Type GND Name KOLKATA GN Frequency 121.9 MHZ
Type RADAR Name Feeder ARE Frequency 127.3 MHZ
Type TWR Name KOLKATA TW Frequency 118.1 MHZ
Airport Navaids
Type VOR-DME Name Kolkata Frequency 112500 KHZ
Type NDB Name Kolkata Frequency 385 KHZ
Airport Weather Information & NOTAM
ADDS - METARS form results

(1046 UTC 19 September 2018)
Data provider http://aviationweather.gov/metar/data/
 
METAR text: VECC 191030Z 02006KT 4000 HZ FEW020 SCT100 35/27 Q1001 NOSIG
Conditions at: VECC (CALCUTTA/DUM DUM, IN) observed 1030 UTC 19 September 2018
Temperature: 35.0°C (95°F)
Dewpoint: 27.0°C (81°F) [RH = 63%]
Pressure (altimeter): 29.56 inches Hg (1001.0 mb)
Winds: from the NNE (20 degrees) at 7 MPH (6 knots; 3.1 m/s)
Visibility: 2.49 miles (4.01 km)
Ceiling: at least 12,000 feet AGL
Clouds: few clouds at 2000 feet AGL
scattered clouds at 10000 feet AGL
Weather: HZ  (haze)

METAR text: VECC 191000Z 34006KT 4000 HZ FEW020 SCT100 35/27 Q1000 NOSIG
Conditions at: VECC (CALCUTTA/DUM DUM, IN) observed 1000 UTC 19 September 2018
Temperature: 35.0°C (95°F)
Dewpoint: 27.0°C (81°F) [RH = 63%]
Pressure (altimeter): 29.53 inches Hg (1000.0 mb)
Winds: from the NNW (340 degrees) at 7 MPH (6 knots; 3.1 m/s)
Visibility: 2.49 miles (4.01 km)
Ceiling: at least 12,000 feet AGL
Clouds: few clouds at 2000 feet AGL
scattered clouds at 10000 feet AGL
Weather: HZ  (haze)

Forecast for: VECC (CALCUTTA/DUM DUM, IN)
Text: TAF VECC 190800Z 1909/1918 05007KT 3500 HZ SCT020 SCT100
Forecast period: 0900 to 1600 UTC 19 September 2018
Forecast type: FROM: standard forecast or significant change
Winds: from the NE (50 degrees) at 8 MPH (7 knots; 3.6 m/s)
Visibility: 2.17 miles (3.49 km)
Ceiling: at least 12,000 feet AGL
Clouds: scattered clouds at 2000 feet AGL
scattered clouds at 10000 feet AGL
Weather: HZ  (haze)
Text: BECMG 1916/1918 12005KT 2800 -RA HZ SCT018 BKN100
Forecast period: 1600 to 1800 UTC 19 September 2018
Forecast type: BECOMING: Conditions expected to become as follows by 1800 UTC 19 September 2018
Winds: from the ESE (120 degrees) at 6 MPH (5 knots; 2.6 m/s)
Visibility: 1.74 miles (2.80 km)
Ceiling: 10000 feet AGL
Clouds: scattered clouds at 1800 feet AGL
broken clouds at 10000 feet AGL
Weather: -RA HZ  (light rain, haze)